createdAt,value
2023-02-18T00:01:43.097Z,17.75
2023-02-18T00:04:11.134Z,18.17
2023-02-18T00:06:38.878Z,16.23
2023-02-18T00:09:09.577Z,21.98
2023-02-18T00:11:38.639Z,15.93
2023-02-18T00:14:10.104Z,20.90
2023-02-18T00:16:38.113Z,15.45
2023-02-18T00:19:09.243Z,9.70
2023-02-18T00:21:37.370Z,22.15
2023-02-18T00:24:06.157Z,16.25
2023-02-18T00:26:34.247Z,12.82
2023-02-18T00:29:01.883Z,14.10
2023-02-18T00:31:31.475Z,15.55
2023-02-18T00:34:01.287Z,24.85
2023-02-18T00:36:31.110Z,16.65
2023-02-18T00:39:03.487Z,17.65
2023-02-18T00:41:31.640Z,14.63
2023-02-18T00:43:59.287Z,9.15
2023-02-18T00:46:28.461Z,12.95
2023-02-18T00:48:56.167Z,13.35
2023-02-18T00:51:25.240Z,18.08
2023-02-18T00:53:54.988Z,20.23
2023-02-18T00:56:22.602Z,15.98
2023-02-18T00:58:50.854Z,17.10
2023-02-18T01:01:19.304Z,15.77
2023-02-18T01:03:47.270Z,19.23
2023-02-18T01:06:15.851Z,11.93
2023-02-18T01:08:43.902Z,13.82
2023-02-18T01:11:14.169Z,11.68
2023-02-18T01:13:42.304Z,16.25
2023-02-18T01:16:10.846Z,9.57
2023-02-18T01:18:39.819Z,13.77
2023-02-18T01:21:08.593Z,13.15
2023-02-18T01:23:37.610Z,17.10
2023-02-18T01:26:05.684Z,16.20
2023-02-18T01:28:34.854Z,13.60
2023-02-18T01:31:07.261Z,11.10
2023-02-18T01:33:35.447Z,12.40
2023-02-18T01:36:03.478Z,16.75
2023-02-18T01:38:31.137Z,23.30
2023-02-18T01:40:58.725Z,9.75
2023-02-18T01:43:26.366Z,16.35
2023-02-18T01:46:04.278Z,15.02
2023-02-18T01:48:35.938Z,13.07
2023-02-18T01:51:09.777Z,14.48
2023-02-18T01:53:41.976Z,11.00
2023-02-18T01:56:15.018Z,15.27
2023-02-18T01:58:43.934Z,11.77
2023-02-18T02:01:12.921Z,20.05
2023-02-18T02:03:42.416Z,16.13
2023-02-18T02:06:18.088Z,10.32
2023-02-18T02:08:48.544Z,15.95
2023-02-18T02:11:24.489Z,17.55
2023-02-18T02:14:06.665Z,13.65
2023-02-18T02:16:41.835Z,17.17
2023-02-18T02:19:30.037Z,14.43
2023-02-18T02:22:29.947Z,13.48
2023-02-18T02:25:10.304Z,14.52
2023-02-18T02:28:01.868Z,8.50
2023-02-18T02:30:48.479Z,16.02
2023-02-18T02:33:34.007Z,18.33
2023-02-18T02:36:08.161Z,12.65
2023-02-18T02:38:42.214Z,4.90
2023-02-18T02:41:19.516Z,10.18
2023-02-18T02:43:57.198Z,12.82
2023-02-18T02:46:29.561Z,11.60
2023-02-18T02:49:04.606Z,12.25
2023-02-18T02:51:40.101Z,14.32
2023-02-18T02:54:14.324Z,8.88
2023-02-18T02:56:41.950Z,12.00
2023-02-18T02:59:17.102Z,11.38
2023-02-18T03:01:59.189Z,13.48
2023-02-18T03:04:47.015Z,13.48
2023-02-18T03:07:36.912Z,14.93
2023-02-18T03:10:18.479Z,8.35
2023-02-18T03:12:54.833Z,9.73
2023-02-18T03:15:28.262Z,17.25
2023-02-18T03:18:03.505Z,8.23
2023-02-18T03:20:36.239Z,16.20
2023-02-18T03:23:16.804Z,12.52
2023-02-18T03:25:45.140Z,18.88
2023-02-18T03:28:18.230Z,15.35
2023-02-18T03:30:49.948Z,13.68
2023-02-18T03:33:21.524Z,13.95
2023-02-18T03:35:51.005Z,11.18
2023-02-18T03:38:24.021Z,16.98
2023-02-18T03:40:52.087Z,10.82
2023-02-18T03:43:20.074Z,10.63
2023-02-18T03:45:47.718Z,13.20
2023-02-18T03:48:15.329Z,10.32
2023-02-18T03:50:42.876Z,11.55
2023-02-18T03:53:10.472Z,5.72
2023-02-18T03:55:39.601Z,16.65
2023-02-18T03:58:07.485Z,12.73
2023-02-18T04:00:35.105Z,9.55
2023-02-18T04:03:02.698Z,8.65
2023-02-18T04:05:30.474Z,15.18
2023-02-18T04:07:57.981Z,8.70
2023-02-18T04:10:25.537Z,12.80
2023-02-18T04:12:54.372Z,9.70
2023-02-18T04:15:21.910Z,14.18
2023-02-18T04:17:49.498Z,12.20
2023-02-18T04:20:17.486Z,6.82
2023-02-18T04:22:45.115Z,5.32
2023-02-18T04:25:12.823Z,10.68
2023-02-18T04:27:40.416Z,9.63
2023-02-18T04:30:10.334Z,6.45
2023-02-18T04:32:38.396Z,6.55
2023-02-18T04:35:06.405Z,10.43
2023-02-18T04:37:34.010Z,10.23
2023-02-18T04:40:01.548Z,11.25
2023-02-18T04:42:29.262Z,13.25
2023-02-18T04:44:56.801Z,11.85
2023-02-18T04:47:25.719Z,9.27
2023-02-18T04:49:53.291Z,12.27
2023-02-18T04:52:20.785Z,12.30
2023-02-18T04:54:48.438Z,5.00
2023-02-18T04:57:16.037Z,9.05
2023-02-18T04:59:43.695Z,11.40
2023-02-18T05:02:11.172Z,6.60
2023-02-18T05:04:40.066Z,8.95
2023-02-18T05:07:07.679Z,10.52
2023-02-18T05:09:35.211Z,9.73
2023-02-18T05:12:03.048Z,6.22
2023-02-18T05:14:30.619Z,9.40
2023-02-18T05:16:58.155Z,7.15
2023-02-18T05:19:25.743Z,10.10
2023-02-18T05:21:54.583Z,6.18
2023-02-18T05:24:22.826Z,12.32
2023-02-18T05:26:50.445Z,9.23
2023-02-18T05:29:17.948Z,10.75
2023-02-18T05:31:45.584Z,9.77
2023-02-18T05:34:13.281Z,10.98
2023-02-18T05:36:40.864Z,11.50
2023-02-18T05:39:09.794Z,7.88
2023-02-18T05:41:37.373Z,13.15
2023-02-18T05:44:22.584Z,9.45
2023-02-18T05:46:50.137Z,6.97
2023-02-18T05:49:17.730Z,8.23
2023-02-18T05:51:45.248Z,9.63
2023-02-18T05:54:14.835Z,10.45
2023-02-18T05:56:42.404Z,7.35
2023-02-18T05:59:10.028Z,10.52
2023-02-18T06:01:37.632Z,9.02
2023-02-18T06:04:05.366Z,9.13
2023-02-18T06:06:32.946Z,8.75
2023-02-18T06:09:00.483Z,4.22
2023-02-18T06:11:29.382Z,8.38
2023-02-18T06:13:56.984Z,9.13
2023-02-18T06:16:25.056Z,6.80
2023-02-18T06:18:52.749Z,10.90
2023-02-18T06:21:20.594Z,7.05
2023-02-18T06:23:48.691Z,7.45
2023-02-18T06:26:16.353Z,10.05
2023-02-18T06:28:45.289Z,7.45
2023-02-18T06:31:12.920Z,11.98
2023-02-18T06:33:40.538Z,15.77
2023-02-18T06:36:11.692Z,10.23
2023-02-18T06:38:40.608Z,6.45
2023-02-18T06:41:08.430Z,8.18
2023-02-18T06:43:36.210Z,8.90
2023-02-18T06:46:06.338Z,8.98
2023-02-18T06:48:34.373Z,10.50
2023-02-18T06:51:02.020Z,9.00
2023-02-18T06:53:29.621Z,4.95
2023-02-18T06:55:57.169Z,8.75
2023-02-18T06:58:24.874Z,10.73
2023-02-18T07:00:52.463Z,15.35
2023-02-18T07:03:21.759Z,7.88
2023-02-18T07:05:49.385Z,9.13
2023-02-18T07:08:16.943Z,12.30
2023-02-18T07:10:44.520Z,13.95
2023-02-18T07:13:12.040Z,13.07
2023-02-18T07:15:39.688Z,8.73
2023-02-18T07:18:07.658Z,9.70
2023-02-18T07:20:36.781Z,12.88
2023-02-18T07:23:04.344Z,18.23
2023-02-18T07:25:31.896Z,11.75
2023-02-18T07:27:59.562Z,10.43
2023-02-18T07:30:27.115Z,11.88
2023-02-18T07:32:54.727Z,18.88
2023-02-18T07:35:22.434Z,17.27
2023-02-18T07:37:51.983Z,12.60
2023-02-18T07:40:21.589Z,12.35
2023-02-18T07:42:49.870Z,13.50
2023-02-18T07:45:17.505Z,13.50
2023-02-18T07:47:45.464Z,12.85
2023-02-18T07:50:13.062Z,13.48
2023-02-18T07:52:41.623Z,13.98
2023-02-18T07:55:10.752Z,9.25
2023-02-18T07:57:57.351Z,9.10
2023-02-18T08:00:25.643Z,7.50
2023-02-18T08:02:53.202Z,7.03
2023-02-18T08:05:20.858Z,10.65
2023-02-18T08:07:48.423Z,11.13
2023-02-18T08:10:17.344Z,9.68
2023-02-18T08:12:44.868Z,8.32
2023-02-18T08:15:12.521Z,9.57
2023-02-18T08:17:40.129Z,6.13
2023-02-18T08:20:08.788Z,7.90
2023-02-18T08:22:36.317Z,5.72
2023-02-18T08:25:04.105Z,7.18
2023-02-18T08:27:33.242Z,13.48
2023-02-18T08:30:00.784Z,9.05
2023-02-18T08:32:29.001Z,4.97
2023-02-18T08:34:56.818Z,7.18
2023-02-18T08:37:25.482Z,12.93
2023-02-18T08:39:53.190Z,7.10
2023-02-18T08:42:20.752Z,6.43
2023-02-18T08:44:49.660Z,10.65
2023-02-18T08:48:13.484Z,7.32
2023-02-18T08:50:05.075Z,7.53
2023-02-18T08:52:32.681Z,9.07
2023-02-18T08:55:00.244Z,6.68
2023-02-18T08:57:28.974Z,7.97
2023-02-18T08:59:57.845Z,8.90
2023-02-18T09:02:25.429Z,7.30
2023-02-18T09:04:53.028Z,13.52
2023-02-18T09:07:20.633Z,8.27
2023-02-18T09:09:48.309Z,10.00
2023-02-18T09:12:15.891Z,11.15
2023-02-18T09:14:43.470Z,9.18
2023-02-18T09:17:12.344Z,8.60
2023-02-18T09:19:39.915Z,12.98
2023-02-18T09:22:07.525Z,8.65
2023-02-18T09:24:37.992Z,12.32
2023-02-18T09:27:05.643Z,8.38
2023-02-18T09:29:34.103Z,8.57
2023-02-18T09:32:02.085Z,8.27
2023-02-18T09:34:31.302Z,14.65
2023-02-18T09:36:58.955Z,11.65
2023-02-18T09:39:26.765Z,15.32
2023-02-18T09:41:57.693Z,9.27
2023-02-18T09:44:28.802Z,10.30
2023-02-18T09:47:00.680Z,9.93
2023-02-18T09:49:31.207Z,10.00
2023-02-18T09:52:05.747Z,10.13
2023-02-18T09:54:33.466Z,8.98
2023-02-18T09:57:01.877Z,9.55
2023-02-18T09:59:30.006Z,10.52
2023-02-18T10:01:58.228Z,10.50
2023-02-18T10:04:32.056Z,11.50
2023-02-18T10:07:03.774Z,10.02
2023-02-18T10:09:35.348Z,9.98
2023-02-18T10:12:13.066Z,10.75
2023-02-18T10:14:40.875Z,10.70
2023-02-18T10:17:11.108Z,10.93
2023-02-18T10:19:41.905Z,8.27
2023-02-18T10:22:15.054Z,8.93
2023-02-18T10:24:47.523Z,8.48
2023-02-18T10:27:20.510Z,7.78
2023-02-18T10:29:48.150Z,10.73
2023-02-18T10:32:22.725Z,9.98
2023-02-18T10:34:54.538Z,6.72
2023-02-18T10:37:41.002Z,9.73
2023-02-18T10:40:14.883Z,11.50
2023-02-18T10:42:51.275Z,9.82
2023-02-18T10:45:31.879Z,11.02
2023-02-18T10:48:12.504Z,10.10
2023-02-18T10:50:42.602Z,8.35
2023-02-18T10:53:14.723Z,12.13
2023-02-18T10:55:44.159Z,11.10
2023-02-18T10:58:32.749Z,7.88
2023-02-18T11:01:04.898Z,7.55
2023-02-18T11:03:45.867Z,8.18
2023-02-18T11:06:21.740Z,7.95
2023-02-18T11:08:51.449Z,9.52
2023-02-18T11:11:24.282Z,10.18
2023-02-18T11:13:55.197Z,8.88
2023-02-18T11:16:23.582Z,7.43
2023-02-18T11:18:51.805Z,6.20
2023-02-18T11:21:27.591Z,10.52
2023-02-18T11:23:57.844Z,6.55
2023-02-18T11:26:29.335Z,5.07
2023-02-18T11:29:03.888Z,5.43
2023-02-18T11:31:42.520Z,4.68
2023-02-18T11:34:17.528Z,4.97
2023-02-18T11:36:45.942Z,3.10
2023-02-18T11:39:24.727Z,3.25
2023-02-18T11:41:57.236Z,2.45
2023-02-18T11:44:29.837Z,2.10
2023-02-18T11:47:00.696Z,1.08
2023-02-18T11:49:29.956Z,0.82
2023-02-18T11:52:07.238Z,0.95
2023-02-18T11:54:36.489Z,0.80
2023-02-18T11:57:06.563Z,1.38
2023-02-18T11:59:36.799Z,1.17
2023-02-18T12:02:19.568Z,3.63
2023-02-18T12:04:52.872Z,3.97
2023-02-18T12:07:24.648Z,12.50
2023-02-18T12:09:57.368Z,18.25
2023-02-18T12:12:29.250Z,7.53
2023-02-18T12:14:57.410Z,0.88
2023-02-18T12:17:47.978Z,0.82
2023-02-18T12:20:28.593Z,1.23
2023-02-18T12:23:03.643Z,1.65
2023-02-18T12:25:41.614Z,1.45
2023-02-18T12:28:25.472Z,1.25
2023-02-18T12:31:19.494Z,2.22
2023-02-18T12:33:57.790Z,5.45
2023-02-18T12:36:38.629Z,3.30
2023-02-18T12:39:19.135Z,2.22
2023-02-18T12:42:00.984Z,4.88
2023-02-18T12:44:37.348Z,7.32
2023-02-18T12:47:26.062Z,5.05
2023-02-18T12:50:18.137Z,8.10
2023-02-18T12:52:59.426Z,5.50
2023-02-18T12:55:37.509Z,7.55
2023-02-18T12:58:16.835Z,6.68
2023-02-18T13:01:26.647Z,5.60
2023-02-18T13:04:22.859Z,8.55
2023-02-18T13:07:21.260Z,13.70
2023-02-18T13:10:03.005Z,13.07
2023-02-18T13:12:45.178Z,18.48
2023-02-18T13:15:18.712Z,10.27
2023-02-18T13:17:47.399Z,14.73
2023-02-18T13:20:21.506Z,8.82
2023-02-18T13:22:53.562Z,15.18
2023-02-18T13:25:25.717Z,18.65
2023-02-18T13:28:09.945Z,16.20
2023-02-18T13:30:46.148Z,12.57
2023-02-18T13:33:20.268Z,15.80
2023-02-18T13:35:53.299Z,15.27
2023-02-18T13:38:36.634Z,11.98
2023-02-18T13:41:05.171Z,20.73
2023-02-18T13:43:34.792Z,15.35
2023-02-18T13:46:11.086Z,12.10
2023-02-18T13:48:45.654Z,13.10
2023-02-18T13:51:15.447Z,14.93
2023-02-18T13:53:46.106Z,12.68
2023-02-18T13:56:23.097Z,16.60
2023-02-18T13:58:53.604Z,11.50
2023-02-18T14:01:26.080Z,17.13
2023-02-18T14:03:59.389Z,18.55
2023-02-18T14:06:29.468Z,14.45
2023-02-18T14:09:25.835Z,14.25
2023-02-18T14:11:56.342Z,12.45
2023-02-18T14:14:45.097Z,15.45
2023-02-18T14:17:31.768Z,14.75
2023-02-18T14:20:31.166Z,10.45
2023-02-18T14:22:59.177Z,7.55
2023-02-18T14:25:36.363Z,8.43
2023-02-18T14:28:25.238Z,7.75
2023-02-18T14:30:53.367Z,7.00
2023-02-18T14:33:22.663Z,8.25
2023-02-18T14:35:57.364Z,3.60
2023-02-18T14:38:34.275Z,6.40
2023-02-18T14:41:17.842Z,4.70
2023-02-18T14:44:05.206Z,5.07
2023-02-18T14:46:41.800Z,4.82
2023-02-18T14:49:38.958Z,4.15
2023-02-18T14:52:11.907Z,4.00
2023-02-18T14:54:41.987Z,5.28
2023-02-18T14:57:15.499Z,5.05
2023-02-18T14:59:43.804Z,5.22
2023-02-18T15:02:19.560Z,6.00
2023-02-18T15:04:50.508Z,6.18
2023-02-18T15:07:20.594Z,5.45
2023-02-18T15:09:49.285Z,7.20
2023-02-18T15:12:20.590Z,6.25
2023-02-18T15:14:50.676Z,8.32
2023-02-18T15:17:21.408Z,5.93
2023-02-18T15:19:53.790Z,5.63
2023-02-18T15:22:24.066Z,6.20
2023-02-18T15:24:53.376Z,6.07
2023-02-18T15:27:23.152Z,7.25
2023-02-18T15:29:51.950Z,5.18
2023-02-18T15:32:22.319Z,4.97
2023-02-18T15:34:53.749Z,5.80
2023-02-18T15:37:21.662Z,5.10
2023-02-18T15:39:49.339Z,5.47
2023-02-18T15:42:26.270Z,6.07
2023-02-18T15:44:58.172Z,13.32
2023-02-18T15:47:26.041Z,3.92
2023-02-18T15:49:58.045Z,2.40
2023-02-18T15:52:28.100Z,3.38
2023-02-18T15:54:57.658Z,2.33
2023-02-18T15:57:29.288Z,6.10
2023-02-18T16:00:04.379Z,3.33
2023-02-18T16:02:34.916Z,2.30
2023-02-18T16:05:05.528Z,4.15
2023-02-18T16:07:39.282Z,10.48
2023-02-18T16:10:17.524Z,5.47
2023-02-18T16:12:48.416Z,6.72
2023-02-18T16:15:21.763Z,4.10
2023-02-18T16:17:49.450Z,3.63
2023-02-18T16:20:27.240Z,4.57
2023-02-18T16:22:56.402Z,11.20
2023-02-18T16:25:27.071Z,6.85
2023-02-18T16:28:04.303Z,6.90
2023-02-18T16:30:33.673Z,6.47
2023-02-18T16:33:01.430Z,4.88
2023-02-18T16:35:44.009Z,9.35
2023-02-18T16:38:17.993Z,4.60
2023-02-18T16:40:45.644Z,4.65
2023-02-18T16:43:15.509Z,6.22
2023-02-18T16:45:46.518Z,4.25
2023-02-18T16:48:20.533Z,4.68
2023-02-18T16:50:51.401Z,4.95
2023-02-18T16:53:19.980Z,4.22
2023-02-18T16:55:47.577Z,5.55
2023-02-18T16:58:15.161Z,23.75
2023-02-18T17:00:43.834Z,7.88
2023-02-18T17:03:12.517Z,8.70
2023-02-18T17:05:41.058Z,7.97
2023-02-18T17:08:18.597Z,4.32
2023-02-18T17:10:46.920Z,5.10
2023-02-18T17:13:15.727Z,8.25
2023-02-18T17:15:46.375Z,7.07
2023-02-18T17:18:15.170Z,5.93
2023-02-18T17:20:43.297Z,8.45
2023-02-18T17:23:14.650Z,11.30
2023-02-18T17:25:43.360Z,6.43
2023-02-18T17:28:10.879Z,7.90
2023-02-18T17:30:40.486Z,10.30
2023-02-18T17:33:09.191Z,9.68
2023-02-18T17:35:36.830Z,7.22
2023-02-18T17:38:09.565Z,8.52
2023-02-18T17:40:38.530Z,5.85
2023-02-18T17:43:06.100Z,9.32
2023-02-18T17:45:36.416Z,9.40
2023-02-18T17:48:04.524Z,6.50
2023-02-18T17:50:32.773Z,10.73
2023-02-18T17:53:00.394Z,6.65
2023-02-18T17:55:29.355Z,6.68
2023-02-18T17:57:59.202Z,7.30
2023-02-18T18:00:28.684Z,9.32
2023-02-18T18:02:56.567Z,8.23
2023-02-18T18:05:26.661Z,11.57
2023-02-18T18:07:55.402Z,9.70
2023-02-18T18:10:28.364Z,11.40
2023-02-18T18:12:56.079Z,9.52
2023-02-18T18:15:29.078Z,9.98
2023-02-18T18:17:57.927Z,13.27
2023-02-18T18:20:26.937Z,7.20
2023-02-18T18:22:56.446Z,11.10
2023-02-18T18:25:26.662Z,9.52
2023-02-18T18:27:54.800Z,8.73
2023-02-18T18:30:24.623Z,10.85
2023-02-18T18:32:53.974Z,11.02
2023-02-18T18:35:25.039Z,10.63
2023-02-18T18:37:52.918Z,15.50
2023-02-18T18:40:22.203Z,13.07
2023-02-18T18:42:49.920Z,11.80
2023-02-18T18:45:21.335Z,12.85
2023-02-18T18:47:49.259Z,12.80
2023-02-18T18:50:19.168Z,15.00
2023-02-18T18:52:47.657Z,15.15
2023-02-18T18:55:27.967Z,14.65
2023-02-18T18:57:56.286Z,12.90
2023-02-18T19:00:26.981Z,11.35
2023-02-18T19:02:54.563Z,11.95
2023-02-18T19:05:26.936Z,12.48
2023-02-18T19:07:54.833Z,12.38
2023-02-18T19:10:23.439Z,13.90
2023-02-18T19:12:51.301Z,12.48
2023-02-18T19:15:21.496Z,13.93
2023-02-18T19:17:51.184Z,13.50
2023-02-18T19:20:22.296Z,11.82
2023-02-18T19:22:51.472Z,14.82
2023-02-18T19:25:20.317Z,14.05
2023-02-18T19:27:49.262Z,13.40
2023-02-18T19:30:18.829Z,11.93
2023-02-18T19:32:47.016Z,9.40
2023-02-18T19:35:14.568Z,11.35
2023-02-18T19:37:42.447Z,11.50
2023-02-18T19:40:14.665Z,12.13
2023-02-18T19:42:42.429Z,10.75
2023-02-18T19:45:11.057Z,10.48
2023-02-18T19:47:38.718Z,11.60
2023-02-18T19:50:08.276Z,9.55
2023-02-18T19:52:36.424Z,9.98
2023-02-18T19:55:04.163Z,11.25
2023-02-18T19:57:34.540Z,10.18
2023-02-18T20:00:02.206Z,9.10
2023-02-18T20:02:40.471Z,9.32
2023-02-18T20:05:09.670Z,7.60
2023-02-18T20:07:37.354Z,7.63
2023-02-18T20:10:06.128Z,9.25
2023-02-18T20:12:35.043Z,8.25
2023-02-18T20:15:03.805Z,7.85
2023-02-18T20:17:31.488Z,7.75
2023-02-18T20:19:59.178Z,7.22
2023-02-18T20:22:26.803Z,6.35
2023-02-18T20:24:54.400Z,7.68
2023-02-18T20:27:22.128Z,8.30
2023-02-18T20:29:52.013Z,6.85
2023-02-18T20:32:19.691Z,9.20
2023-02-18T20:34:47.509Z,10.40
2023-02-18T20:37:15.063Z,9.73
2023-02-18T20:39:42.833Z,7.70
2023-02-18T20:42:16.283Z,9.73
2023-02-18T20:44:44.711Z,7.80
2023-02-18T20:47:14.357Z,10.18
2023-02-18T20:49:42.849Z,10.10
2023-02-18T20:52:11.236Z,15.50
2023-02-18T20:54:39.866Z,11.38
2023-02-18T20:57:08.885Z,14.38
2023-02-18T20:59:36.645Z,13.70
2023-02-18T21:02:04.995Z,10.77
2023-02-18T21:04:34.044Z,12.85
2023-02-18T21:07:01.753Z,12.32
2023-02-18T21:09:29.314Z,12.40
2023-02-18T21:11:56.955Z,12.27
2023-02-18T21:14:25.028Z,17.10
2023-02-18T21:16:52.570Z,10.52
2023-02-18T21:19:20.211Z,13.23
2023-02-18T21:21:49.078Z,13.68
2023-02-18T21:24:16.721Z,14.00
2023-02-18T21:26:44.282Z,15.02
2023-02-18T21:29:12.292Z,13.43
2023-02-18T21:31:42.406Z,12.15
2023-02-18T21:34:13.394Z,11.50
2023-02-18T21:36:41.271Z,14.32
2023-02-18T21:39:11.643Z,15.02
2023-02-18T21:41:40.951Z,13.55
2023-02-18T21:44:08.955Z,9.93
2023-02-18T21:46:37.413Z,15.50
2023-02-18T21:49:10.312Z,10.25
2023-02-18T21:52:00.298Z,10.13
2023-02-18T21:54:31.369Z,10.70
2023-02-18T21:57:00.315Z,12.55
2023-02-18T21:59:29.383Z,10.52
2023-02-18T22:01:59.758Z,12.13
2023-02-18T22:04:27.530Z,11.82
2023-02-18T22:06:55.053Z,12.85
2023-02-18T22:09:22.751Z,13.77
2023-02-18T22:11:51.726Z,13.30
2023-02-18T22:14:19.377Z,9.75
2023-02-18T22:16:46.937Z,12.05
2023-02-18T22:19:15.107Z,10.15
2023-02-18T22:21:43.073Z,9.23
2023-02-18T22:24:12.307Z,10.75
2023-02-18T22:26:40.052Z,8.43
2023-02-18T22:29:08.914Z,9.45
2023-02-18T22:31:36.654Z,9.88
2023-02-18T22:34:04.376Z,8.60
2023-02-18T22:36:32.758Z,13.20
2023-02-18T22:39:01.305Z,11.00
2023-02-18T22:41:30.771Z,9.68
2023-02-18T22:44:00.248Z,8.40
2023-02-18T22:46:31.333Z,13.70
2023-02-18T22:49:00.342Z,10.38
2023-02-18T22:51:29.317Z,8.00
2023-02-18T22:53:58.457Z,9.05
2023-02-18T22:56:28.059Z,7.47
2023-02-18T22:58:57.046Z,8.43
2023-02-18T23:01:26.773Z,8.10
2023-02-18T23:03:56.642Z,9.45
2023-02-18T23:06:24.874Z,7.53
2023-02-18T23:08:54.403Z,8.65
2023-02-18T23:11:22.473Z,7.53
2023-02-18T23:14:10.217Z,12.38
2023-02-18T23:16:52.673Z,5.68
2023-02-18T23:19:21.665Z,5.80
2023-02-18T23:21:49.503Z,7.43
2023-02-18T23:24:17.113Z,8.95
2023-02-18T23:26:44.701Z,6.43
2023-02-18T23:29:12.355Z,8.77
2023-02-18T23:31:40.060Z,8.82
2023-02-18T23:34:09.310Z,8.00
2023-02-18T23:36:38.158Z,7.72
2023-02-18T23:39:09.022Z,8.57
2023-02-18T23:41:37.406Z,7.85
2023-02-18T23:44:06.097Z,6.20
2023-02-18T23:46:34.342Z,6.47
2023-02-18T23:49:02.407Z,9.07
2023-02-18T23:51:30.616Z,8.35
2023-02-18T23:53:59.449Z,7.72
2023-02-18T23:56:28.184Z,10.35
2023-02-18T23:58:57.392Z,8.02
